Hub


Voltar

 INFORMAÇÕES METEOROLÓGICAS

METAR FOR PAWD


ADDS - METARS form results

(1322 UTC 27 June 2019)
Data provider http://aviationweather.gov/metar/data/
 
METAR text: PAWD 271253Z AUTO 01011G18KT 1 3/4SM HZ OVC026 16/11 A3009 RMK AO2 SLP190 T01560111 TSNO
Conditions at: PAWD (SEWARD , AK, US) observed 1253 UTC 27 June 2019
Temperature: 15.6°C (60°F)
Dewpoint: 11.1°C (52°F) [RH = 75%]
Pressure (altimeter): 30.09 inches Hg (1019.0 mb)
[Sea-level pressure: 1019.0 mb]
Winds: from the N (10 degrees) at 13 MPH (11 knots; 5.7 m/s)
gusting to 21 MPH (18 knots; 9.3 m/s)
Visibility: 1.75 miles (2.82 km)
Ceiling: 2600 feet AGL
Clouds: overcast cloud deck at 2600 feet AGL
Weather: HZ  (haze)

METAR text: PAWD 271246Z AUTO 01012KT 1 3/4SM HZ OVC027 16/11 A3009 RMK AO2 T01610111 TSNO
Conditions at: PAWD (SEWARD , AK, US) observed 1246 UTC 27 June 2019
Temperature: 16.1°C (61°F)
Dewpoint: 11.1°C (52°F) [RH = 72%]
Pressure (altimeter): 30.09 inches Hg (1019.0 mb)
Winds: from the N (10 degrees) at 14 MPH (12 knots; 6.2 m/s)
Visibility: 1.75 miles (2.82 km)
Ceiling: 2700 feet AGL
Clouds: overcast cloud deck at 2700 feet AGL
Weather: HZ  (haze)

METAR text: PAWD 271223Z AUTO 01013KT 2 1/2SM HZ OVC029 16/11 A3009 RMK AO2 T01610111 TSNO
Conditions at: PAWD (SEWARD , AK, US) observed 1223 UTC 27 June 2019
Temperature: 16.1°C (61°F)
Dewpoint: 11.1°C (52°F) [RH = 72%]
Pressure (altimeter): 30.09 inches Hg (1019.0 mb)
Winds: from the N (10 degrees) at 15 MPH (13 knots; 6.7 m/s)
Visibility: 2.50 miles (4.02 km)
Ceiling: 2900 feet AGL
Clouds: overcast cloud deck at 2900 feet AGL
Weather: HZ  (haze)


 MAPA DO AEROPORTO


 INFORMAÇÕES DA PISTA

Pista 13 Tamanho da pista 4240 ft Largura da pista 100 ft
Elevação da pista 22 ft Ranhura da pista 0 ft Proa da pista 144
Pista 31 Tamanho da pista 4240 ft Largura da pista 100 ft
Elevação da pista 22 ft Ranhura da pista 0 ft Proa da pista 324
Pista 16 Tamanho da pista 2279 ft Largura da pista 75 ft
Elevação da pista 0 ft Ranhura da pista 0 ft Proa da pista 174
Pista 34 Tamanho da pista 2279 ft Largura da pista 75 ft
Elevação da pista 0 ft Ranhura da pista 0 ft Proa da pista 354

 FREQUÊNCIAS DO AEROPORTO

Tipo ASOS Nome ASOS Frequência 135.2 MHZ
Tipo CTAF Nome CTAF Frequência 122.9 MHZ
Tipo FSS Nome KENAI RDO Frequência 122.6 MHZ

 AUXÍLIOS DE NAVEGAÇÃO PRÓXIMOS AO AEROPORTO